createdAt,value
2023-04-02T00:02:23.932Z,5.50
2023-04-02T00:05:18.436Z,5.50
2023-04-02T00:08:41.624Z,5.50
2023-04-02T00:11:49.758Z,5.60
2023-04-02T00:14:36.854Z,5.80
2023-04-02T00:17:25.035Z,5.80
2023-04-02T00:20:16.398Z,5.70
2023-04-02T00:23:04.468Z,5.80
2023-04-02T00:25:51.420Z,5.20
2023-04-02T00:28:38.288Z,5.10
2023-04-02T00:31:26.185Z,4.90
2023-04-02T00:34:32.437Z,4.90
2023-04-02T00:37:25.265Z,4.80
2023-04-02T00:40:23.164Z,4.60
2023-04-02T00:43:16.584Z,4.50
2023-04-02T00:46:14.246Z,4.60
2023-04-02T00:49:20.541Z,4.80
2023-04-02T00:52:17.120Z,5.00
2023-04-02T00:55:22.850Z,5.20
2023-04-02T00:58:28.348Z,5.30
2023-04-02T01:01:20.219Z,5.40
2023-04-02T01:04:28.911Z,5.40
2023-04-02T01:07:16.288Z,5.30
2023-04-02T01:10:24.889Z,5.40
2023-04-02T01:13:36.581Z,5.40
2023-04-02T01:16:33.254Z,5.40
2023-04-02T01:19:29.036Z,5.30
2023-04-02T01:22:31.115Z,5.30
2023-04-02T01:25:42.944Z,5.30
2023-04-02T01:29:03.408Z,5.30
2023-04-02T01:31:52.122Z,5.20
2023-04-02T01:34:39.566Z,5.10
2023-04-02T01:37:49.614Z,4.90
2023-04-02T01:40:50.742Z,4.70
2023-04-02T01:44:02.995Z,4.80
2023-04-02T01:46:50.493Z,4.90
2023-04-02T01:49:37.666Z,4.80
2023-04-02T01:52:41.241Z,4.80
2023-04-02T01:55:46.938Z,4.90
2023-04-02T01:58:34.108Z,4.90
2023-04-02T02:01:24.831Z,4.90
2023-04-02T02:04:14.122Z,4.90
2023-04-02T02:07:01.724Z,4.80
2023-04-02T02:09:49.690Z,4.80
2023-04-02T02:12:36.596Z,4.80
2023-04-02T02:15:24.410Z,4.70
2023-04-02T02:18:13.206Z,4.70
2023-04-02T02:21:05.031Z,4.70
2023-04-02T02:23:52.632Z,4.60
2023-04-02T02:26:41.922Z,4.70
2023-04-02T02:29:31.786Z,4.70
2023-04-02T02:32:21.723Z,4.70
2023-04-02T02:35:18.457Z,4.70
2023-04-02T02:38:31.432Z,4.50
2023-04-02T02:41:24.735Z,4.60
2023-04-02T02:44:31.600Z,4.80
2023-04-02T02:47:30.943Z,4.70
2023-04-02T02:50:32.585Z,4.80
2023-04-02T02:53:24.659Z,4.90
2023-04-02T02:56:12.757Z,4.90
2023-04-02T02:59:00.426Z,5.00
2023-04-02T03:01:47.639Z,5.00
2023-04-02T03:04:36.603Z,4.90
2023-04-02T03:07:27.402Z,5.00
2023-04-02T03:10:21.358Z,5.10
2023-04-02T03:13:33.023Z,5.10
2023-04-02T03:16:35.886Z,4.70
2023-04-02T03:19:38.561Z,4.30
2023-04-02T03:22:46.111Z,4.00
2023-04-02T03:25:37.308Z,4.00
2023-04-02T03:28:28.950Z,4.00
2023-04-02T03:31:38.618Z,4.20
2023-04-02T03:34:34.343Z,4.40
2023-04-02T03:37:23.219Z,4.50
2023-04-02T03:40:22.461Z,4.60
2023-04-02T03:43:21.983Z,4.60
2023-04-02T03:46:42.133Z,4.60
2023-04-02T03:49:55.248Z,4.80
2023-04-02T03:52:42.911Z,4.90
2023-04-02T03:55:33.359Z,4.90
2023-04-02T03:58:27.886Z,4.80
2023-04-02T04:01:28.760Z,4.70
2023-04-02T04:04:19.526Z,4.30
2023-04-02T04:07:13.348Z,4.40
2023-04-02T04:10:01.938Z,4.50
2023-04-02T04:12:50.746Z,4.50
2023-04-02T04:15:49.724Z,4.40
2023-04-02T04:18:57.129Z,4.40
2023-04-02T04:21:45.313Z,4.50
2023-04-02T04:24:34.463Z,4.70
2023-04-02T04:27:33.704Z,4.80
2023-04-02T04:30:35.025Z,4.80
2023-04-02T04:33:26.119Z,4.90
2023-04-02T04:36:32.792Z,4.90
2023-04-02T04:39:42.810Z,4.90
2023-04-02T04:42:33.229Z,4.90
2023-04-02T04:45:41.189Z,4.70
2023-04-02T04:48:37.530Z,4.80
2023-04-02T04:51:57.003Z,4.90
2023-04-02T04:54:45.706Z,4.90
2023-04-02T04:57:38.237Z,4.90
2023-04-02T05:00:49.663Z,5.00
2023-04-02T05:03:51.810Z,5.00
2023-04-02T05:07:03.090Z,5.20
2023-04-02T05:10:01.596Z,5.10
2023-04-02T05:13:11.800Z,5.20
2023-04-02T05:16:11.101Z,5.20
2023-04-02T05:19:16.968Z,5.20
2023-04-02T05:22:22.600Z,4.90
2023-04-02T05:25:25.711Z,4.80
2023-04-02T05:28:21.444Z,4.90
2023-04-02T05:31:18.445Z,5.10
2023-04-02T05:34:05.923Z,5.20
2023-04-02T05:36:53.877Z,5.30
2023-04-02T05:39:45.781Z,5.20
2023-04-02T05:42:37.805Z,5.30
2023-04-02T05:45:39.577Z,5.30
2023-04-02T05:48:41.207Z,5.20
2023-04-02T05:51:43.459Z,5.20
2023-04-02T05:54:40.060Z,4.90
2023-04-02T05:57:44.834Z,4.80
2023-04-02T06:00:43.612Z,4.90
2023-04-02T06:03:49.484Z,4.90
2023-04-02T06:06:49.581Z,5.10
2023-04-02T06:09:45.975Z,5.10
2023-04-02T06:12:44.504Z,5.30
2023-04-02T06:15:33.680Z,5.30
2023-04-02T06:18:25.083Z,5.30
2023-04-02T06:21:17.872Z,5.20
2023-04-02T06:24:06.801Z,5.30
2023-04-02T06:27:00.333Z,5.20
2023-04-02T06:29:52.885Z,5.20
2023-04-02T06:32:39.782Z,5.30
2023-04-02T06:35:27.404Z,5.40
2023-04-02T06:38:27.675Z,5.40
2023-04-02T06:41:23.129Z,5.40
2023-04-02T06:44:20.665Z,5.70
2023-04-02T06:47:31.730Z,5.90
2023-04-02T06:50:31.543Z,5.90
2023-04-02T06:53:26.840Z,6.00
2023-04-02T06:56:32.041Z,6.30
2023-04-02T06:59:19.828Z,6.50
2023-04-02T07:02:29.107Z,6.90
2023-04-02T07:05:16.240Z,7.10
2023-04-02T07:08:03.133Z,7.40
2023-04-02T07:10:50.615Z,7.50
2023-04-02T07:13:37.448Z,7.70
2023-04-02T07:16:26.898Z,7.80
2023-04-02T07:19:22.999Z,7.90
2023-04-02T07:22:09.886Z,7.80
2023-04-02T07:24:56.754Z,7.50
2023-04-02T07:27:43.670Z,7.60
2023-04-02T07:30:30.596Z,7.80
2023-04-02T07:33:20.904Z,7.90
2023-04-02T07:36:08.157Z,8.10
2023-04-02T07:38:55.134Z,8.00
2023-04-02T07:41:56.584Z,8.00
2023-04-02T07:44:43.507Z,8.10
2023-04-02T07:47:30.949Z,7.80
2023-04-02T07:50:18.168Z,7.60
2023-04-02T07:53:05.366Z,7.30
2023-04-02T07:55:53.463Z,7.00
2023-04-02T07:58:40.423Z,7.10
2023-04-02T08:01:29.579Z,7.20
2023-04-02T08:04:22.558Z,7.20
2023-04-02T08:07:09.643Z,7.30
2023-04-02T08:09:56.517Z,7.70
2023-04-02T08:12:43.403Z,7.90
2023-04-02T08:15:30.364Z,8.30
2023-04-02T08:18:17.266Z,8.40
2023-04-02T08:21:08.822Z,8.60
2023-04-02T08:23:56.149Z,8.40
2023-04-02T08:26:44.991Z,8.60
2023-04-02T08:29:32.515Z,9.00
2023-04-02T08:32:19.436Z,9.30
2023-04-02T08:35:07.209Z,9.40
2023-04-02T08:37:54.053Z,8.70
2023-04-02T08:40:46.415Z,8.60
2023-04-02T08:43:40.911Z,8.50
2023-04-02T08:46:48.427Z,8.70
2023-04-02T08:50:09.681Z,8.80
2023-04-02T08:52:58.197Z,8.50
2023-04-02T08:55:50.744Z,8.60
2023-04-02T08:59:48.979Z,8.90
2023-04-02T09:02:43.355Z,8.80
2023-04-02T09:05:36.754Z,8.60
2023-04-02T09:08:27.188Z,9.10
2023-04-02T09:11:23.625Z,9.80
2023-04-02T09:14:20.870Z,9.50
2023-04-02T09:17:15.112Z,9.90
2023-04-02T09:20:21.320Z,10.10
2023-04-02T09:23:23.580Z,9.60
2023-04-02T09:26:23.691Z,9.20
2023-04-02T09:29:13.544Z,9.10
2023-04-02T09:32:28.259Z,9.20
2023-04-02T09:35:26.897Z,9.50
2023-04-02T09:38:19.002Z,9.60
2023-04-02T09:41:18.622Z,9.50
2023-04-02T09:44:21.393Z,9.60
2023-04-02T09:47:25.461Z,9.60
2023-04-02T09:50:21.390Z,9.50
2023-04-02T09:53:33.966Z,9.50
2023-04-02T09:56:26.602Z,9.40
2023-04-02T09:59:13.430Z,9.40
2023-04-02T10:02:03.508Z,9.40
2023-04-02T10:04:51.001Z,9.40
2023-04-02T10:07:44.912Z,9.20
2023-04-02T10:10:43.383Z,9.00
2023-04-02T10:13:53.517Z,8.70
2023-04-02T10:16:53.750Z,8.40
2023-04-02T10:19:48.811Z,8.30
2023-04-02T10:22:35.695Z,8.10
2023-04-02T10:25:26.845Z,8.20
2023-04-02T10:28:42.580Z,8.10
2023-04-02T10:31:41.285Z,8.00
2023-04-02T10:34:54.224Z,7.80
2023-04-02T10:37:47.287Z,8.00
2023-04-02T10:40:42.225Z,8.30
2023-04-02T10:43:38.355Z,8.30
2023-04-02T10:46:47.954Z,8.30
2023-04-02T10:49:46.807Z,8.30
2023-04-02T10:52:47.246Z,8.40
2023-04-02T10:55:40.961Z,8.50
2023-04-02T10:58:31.358Z,8.50
2023-04-02T11:01:24.866Z,8.80
2023-04-02T11:04:42.408Z,9.10
2023-04-02T11:07:36.392Z,9.20
2023-04-02T11:10:23.845Z,9.30
2023-04-02T11:13:23.185Z,9.30
2023-04-02T11:16:15.648Z,9.10
2023-04-02T11:19:16.035Z,8.80
2023-04-02T11:22:16.858Z,8.90
2023-04-02T11:25:04.889Z,8.60
2023-04-02T11:27:52.328Z,8.70
2023-04-02T11:30:39.355Z,8.70
2023-04-02T11:33:43.106Z,8.70
2023-04-02T11:36:50.830Z,8.80
2023-04-02T11:39:53.531Z,8.70
2023-04-02T11:42:48.492Z,8.90
2023-04-02T11:45:57.466Z,9.00
2023-04-02T11:48:44.869Z,9.00
2023-04-02T11:51:31.832Z,8.80
2023-04-02T11:54:26.408Z,8.80
2023-04-02T11:57:28.388Z,9.20
2023-04-02T12:00:33.631Z,9.90
2023-04-02T12:03:25.729Z,11.60
2023-04-02T12:06:21.628Z,13.50
2023-04-02T12:09:49.987Z,14.80
2023-04-02T12:12:39.010Z,17.10
2023-04-02T12:15:44.899Z,19.70
2023-04-02T12:18:32.636Z,25.10
2023-04-02T12:21:22.697Z,30.50
2023-04-02T12:24:19.791Z,32.70
2023-04-02T12:27:22.755Z,30.00
2023-04-02T12:30:14.655Z,26.10
2023-04-02T12:33:19.922Z,22.70
2023-04-02T12:36:14.631Z,19.60
2023-04-02T12:39:01.597Z,17.60
2023-04-02T12:41:48.892Z,16.30
2023-04-02T12:44:35.964Z,15.40
2023-04-02T12:47:23.022Z,14.70
2023-04-02T12:50:15.292Z,14.40
2023-04-02T12:53:02.157Z,14.80
2023-04-02T12:55:51.534Z,16.40
2023-04-02T12:58:45.295Z,19.40
2023-04-02T13:01:33.996Z,21.40
2023-04-02T13:04:22.128Z,21.30
2023-04-02T13:07:17.533Z,23.00
2023-04-02T13:10:32.218Z,23.80
2023-04-02T13:13:24.917Z,22.60
2023-04-02T13:16:17.941Z,20.70
2023-04-02T13:19:18.073Z,19.10
2023-04-02T13:22:29.788Z,18.10
2023-04-02T13:25:16.684Z,17.40
2023-04-02T13:28:03.626Z,16.90
2023-04-02T13:30:50.728Z,16.50
2023-04-02T13:33:37.851Z,16.00
2023-04-02T13:36:25.016Z,15.60
2023-04-02T13:39:11.937Z,15.40
2023-04-02T13:42:02.999Z,15.30
2023-04-02T13:44:49.891Z,15.30
2023-04-02T13:47:38.585Z,15.70
2023-04-02T13:50:29.083Z,16.00
2023-04-02T13:53:24.212Z,16.20
2023-04-02T13:56:11.099Z,16.60
2023-04-02T13:58:58.089Z,17.10
2023-04-02T14:01:47.340Z,17.20
2023-04-02T14:04:42.461Z,17.30
2023-04-02T14:07:57.689Z,17.20
2023-04-02T14:11:19.035Z,17.10
2023-04-02T14:14:21.795Z,17.00
2023-04-02T14:17:18.114Z,16.70
2023-04-02T14:20:47.020Z,16.10
2023-04-02T14:23:45.988Z,15.80
2023-04-02T14:26:56.071Z,15.60
2023-04-02T14:29:46.303Z,15.50
2023-04-02T14:32:36.087Z,15.40
2023-04-02T14:35:29.261Z,15.40
2023-04-02T14:38:30.469Z,15.20
2023-04-02T14:41:37.592Z,14.80
2023-04-02T14:44:29.201Z,14.60
2023-04-02T14:47:34.158Z,14.50
2023-04-02T14:50:29.624Z,14.40
2023-04-02T14:53:24.232Z,14.30
2023-04-02T14:56:12.988Z,14.20
2023-04-02T14:59:53.118Z,14.00
2023-04-02T15:02:53.423Z,13.90
2023-04-02T15:06:03.470Z,13.80
2023-04-02T15:09:08.203Z,13.70
2023-04-02T15:12:12.656Z,13.80
2023-04-02T15:15:13.933Z,13.90
2023-04-02T15:18:02.536Z,13.90
2023-04-02T15:21:08.255Z,14.10
2023-04-02T15:24:13.724Z,14.40
2023-04-02T15:27:24.487Z,14.40
2023-04-02T15:30:29.600Z,14.10
2023-04-02T15:33:31.469Z,13.10
2023-04-02T15:36:35.503Z,12.70
2023-04-02T15:39:34.767Z,11.60
2023-04-02T15:42:55.957Z,11.10
2023-04-02T15:46:05.057Z,10.40
2023-04-02T15:49:04.437Z,10.10
2023-04-02T15:52:05.886Z,10.00
2023-04-02T15:54:56.622Z,10.00
2023-04-02T15:58:05.145Z,10.10
2023-04-02T16:01:01.940Z,10.10
2023-04-02T16:04:24.104Z,10.30
2023-04-02T16:07:44.360Z,10.40
2023-04-02T16:10:41.792Z,10.70
2023-04-02T16:13:32.826Z,10.80
2023-04-02T16:16:34.927Z,10.80
2023-04-02T16:19:28.891Z,10.70
2023-04-02T16:22:26.049Z,10.70
2023-04-02T16:25:20.734Z,10.60
2023-04-02T16:28:26.263Z,10.50
2023-04-02T16:31:22.318Z,10.40
2023-04-02T16:34:21.893Z,10.40
2023-04-02T16:37:42.910Z,10.30
2023-04-02T16:40:57.141Z,10.20
2023-04-02T16:44:05.703Z,10.20
2023-04-02T16:46:52.536Z,10.10
2023-04-02T16:50:03.357Z,10.10
2023-04-02T16:53:03.510Z,10.00
2023-04-02T16:55:56.578Z,10.00
2023-04-02T16:59:03.496Z,9.90
2023-04-02T17:02:15.888Z,9.90
2023-04-02T17:05:30.502Z,9.90
2023-04-02T17:08:26.102Z,9.80
2023-04-02T17:11:31.073Z,9.80
2023-04-02T17:14:23.850Z,9.70
2023-04-02T17:17:12.225Z,9.60
2023-04-02T17:20:01.162Z,9.50
2023-04-02T17:22:48.892Z,9.40
2023-04-02T17:25:57.236Z,9.30
2023-04-02T17:28:47.784Z,9.30
2023-04-02T17:31:35.986Z,9.30
2023-04-02T17:34:24.240Z,9.20
2023-04-02T17:37:35.265Z,9.20
2023-04-02T17:40:54.640Z,9.10
2023-04-02T17:44:19.415Z,9.10
2023-04-02T17:47:23.161Z,9.10
2023-04-02T17:50:26.274Z,9.10
2023-04-02T17:53:16.233Z,9.10
2023-04-02T17:56:19.356Z,9.10
2023-04-02T17:59:21.742Z,9.10
2023-04-02T18:02:30.588Z,9.00
2023-04-02T18:05:25.034Z,8.90
2023-04-02T18:08:38.167Z,8.90
2023-04-02T18:11:38.865Z,8.80
2023-04-02T18:14:47.775Z,8.70
2023-04-02T18:17:34.556Z,8.60
2023-04-02T18:20:48.009Z,8.60
2023-04-02T18:23:56.804Z,8.70
2023-04-02T18:26:58.756Z,8.70
2023-04-02T18:29:54.466Z,8.60
2023-04-02T18:32:48.079Z,8.60
2023-04-02T18:35:38.110Z,8.60
2023-04-02T18:38:34.060Z,8.60
2023-04-02T18:41:39.648Z,8.60
2023-04-02T18:44:45.706Z,8.60
2023-04-02T18:47:42.222Z,8.60
2023-04-02T18:50:39.354Z,8.60
2023-04-02T18:53:28.543Z,8.60
2023-04-02T18:56:20.130Z,8.60
2023-04-02T18:59:06.925Z,8.50
2023-04-02T19:01:56.297Z,8.40
2023-04-02T19:04:50.503Z,8.40
2023-04-02T19:07:41.651Z,8.40
2023-04-02T19:10:35.326Z,8.50
2023-04-02T19:13:22.348Z,8.50
2023-04-02T19:16:18.724Z,8.50
2023-04-02T19:19:27.011Z,8.50
2023-04-02T19:22:33.534Z,8.50
2023-04-02T19:25:24.251Z,8.40
2023-04-02T19:28:24.746Z,8.50
2023-04-02T19:31:26.017Z,8.50
2023-04-02T19:35:07.154Z,8.50
2023-04-02T19:38:07.371Z,8.30
2023-04-02T19:41:00.153Z,8.40
2023-04-02T19:43:47.437Z,8.50
2023-04-02T19:46:34.334Z,8.50
2023-04-02T19:49:32.873Z,8.50
2023-04-02T19:52:21.149Z,8.60
2023-04-02T19:55:08.506Z,8.60
2023-04-02T19:58:04.525Z,8.60
2023-04-02T20:01:00.823Z,8.50
2023-04-02T20:03:47.824Z,8.30
2023-04-02T20:06:35.180Z,8.40
2023-04-02T20:09:22.424Z,8.40
2023-04-02T20:12:09.694Z,8.40
2023-04-02T20:14:56.594Z,8.40
2023-04-02T20:17:44.051Z,8.40
2023-04-02T20:20:30.986Z,8.40
2023-04-02T20:23:19.030Z,8.30
2023-04-02T20:26:06.933Z,8.30
2023-04-02T20:28:53.973Z,8.30
2023-04-02T20:31:41.211Z,8.20
2023-04-02T20:34:28.505Z,8.20
2023-04-02T20:37:15.640Z,8.20
2023-04-02T20:40:02.530Z,8.20
2023-04-02T20:42:49.741Z,8.10
2023-04-02T20:45:37.438Z,8.00
2023-04-02T20:48:25.751Z,8.00
2023-04-02T20:51:15.439Z,8.00
2023-04-02T20:54:02.442Z,7.90
2023-04-02T20:56:50.415Z,7.90
2023-04-02T20:59:37.374Z,7.90
2023-04-02T21:02:24.525Z,7.80
2023-04-02T21:05:11.506Z,7.80
2023-04-02T21:07:58.645Z,7.70
2023-04-02T21:10:46.127Z,7.60
2023-04-02T21:13:36.375Z,7.60
2023-04-02T21:16:33.703Z,7.60
2023-04-02T21:19:20.728Z,7.60
2023-04-02T21:22:07.588Z,7.50
2023-04-02T21:24:54.476Z,7.50
2023-04-02T21:27:41.417Z,7.60
2023-04-02T21:30:28.292Z,7.50
2023-04-02T21:33:15.878Z,7.50
2023-04-02T21:36:11.754Z,7.40
2023-04-02T21:39:04.386Z,7.40
2023-04-02T21:41:53.337Z,7.40
2023-04-02T21:44:46.964Z,7.40
2023-04-02T21:47:33.840Z,7.40
2023-04-02T21:50:20.925Z,7.30
2023-04-02T21:53:07.789Z,7.30
2023-04-02T21:56:01.898Z,7.30
2023-04-02T21:58:49.574Z,7.30
2023-04-02T22:01:39.838Z,7.30
2023-04-02T22:04:28.507Z,7.20
2023-04-02T22:07:15.784Z,7.10
2023-04-02T22:10:02.767Z,7.10
2023-04-02T22:12:49.608Z,7.10
2023-04-02T22:15:36.746Z,7.00
2023-04-02T22:18:23.728Z,7.00
2023-04-02T22:21:11.675Z,6.90
2023-04-02T22:24:03.552Z,6.90
2023-04-02T22:26:51.144Z,6.90
2023-04-02T22:29:38.033Z,6.90
2023-04-02T22:32:24.901Z,6.80
2023-04-02T22:35:11.838Z,6.80
2023-04-02T22:37:58.810Z,6.80
2023-04-02T22:40:46.027Z,6.70
2023-04-02T22:43:33.400Z,6.70
2023-04-02T22:46:21.299Z,6.60
2023-04-02T22:49:08.259Z,6.60
2023-04-02T22:51:55.325Z,6.60
2023-04-02T22:54:42.260Z,6.50
2023-04-02T22:57:29.099Z,6.50
2023-04-02T23:00:17.564Z,6.40
2023-04-02T23:03:04.925Z,6.40
2023-04-02T23:06:03.034Z,6.30
2023-04-02T23:08:50.024Z,6.30
2023-04-02T23:11:36.940Z,6.30
2023-04-02T23:14:23.796Z,6.20
2023-04-02T23:17:10.693Z,6.20
2023-04-02T23:19:57.540Z,6.10
2023-04-02T23:22:44.504Z,6.10
2023-04-02T23:25:31.381Z,6.10
2023-04-02T23:28:18.445Z,6.10
2023-04-02T23:31:07.936Z,6.00
2023-04-02T23:33:54.935Z,5.90
2023-04-02T23:36:41.780Z,5.90
2023-04-02T23:39:28.673Z,5.90
2023-04-02T23:42:16.027Z,5.80
2023-04-02T23:45:03.022Z,5.70
2023-04-02T23:47:50.166Z,5.70
2023-04-02T23:50:37.395Z,5.70
2023-04-02T23:53:24.491Z,5.60
2023-04-02T23:56:11.733Z,5.60
2023-04-02T23:58:58.645Z,5.50
